Time,TemperatureF,DewpointF,PressureIn,WindDirection,WindDirectionDegrees,WindSpeedMPH,WindSpeedGustMPH,Humidity,HourlyPrecipIn,Conditions,Clouds,dailyrainin,SoftwareType,DateUTC
2013-06-03 00:00:00,53.4,32.6,29.63,ESE,113,5.0,12.0,45,0.00,CLR,,0.00,WeatherDisplay:10.37,2013-06-03 06:00:00,
2013-06-03 00:30:00,53.2,31.3,29.63,SE,130,0.0,14.0,43,0.00,CLR,,0.00,WeatherDisplay:10.37,2013-06-03 06:30:00,
2013-06-03 01:00:00,51.7,31.0,29.62,SSE,168,5.0,12.0,45,0.00,CLR,,0.00,WeatherDisplay:10.37,2013-06-03 07:00:00,
2013-06-03 01:30:00,51.6,30.4,29.61,SE,132,6.0,10.0,44,0.00,CLR,,0.00,WeatherDisplay:10.37,2013-06-03 07:30:00,
2013-06-03 02:00:00,51.4,30.2,29.60,SE,127,6.0,10.0,44,0.00,CLR,,0.00,WeatherDisplay:10.37,2013-06-03 08:00:00,
2013-06-03 02:30:00,49.9,30.5,29.59,SE,128,2.0,12.0,47,0.00,CLR,,0.00,WeatherDisplay:10.37,2013-06-03 08:30:00,
2013-06-03 03:00:00,49.2,30.3,29.59,ESE,122,5.0,12.0,48,0.00,CLR,,0.00,WeatherDisplay:10.37,2013-06-03 09:00:00,
2013-06-03 03:30:00,49.4,30.0,29.59,SE,134,5.0,12.0,47,0.00,CLR,,0.00,WeatherDisplay:10.37,2013-06-03 09:30:00,
2013-06-03 04:00:00,47.7,31.4,29.59,ESE,121,2.0,9.0,53,0.00,CLR,,0.00,WeatherDisplay:10.37,2013-06-03 10:00:00,
2013-06-03 04:30:00,46.6,30.4,29.59,SE,132,2.0,7.0,53,0.00,CLR,,0.00,WeatherDisplay:10.37,2013-06-03 10:30:00,
2013-06-03 05:00:00,45.4,30.6,29.60,SE,136,3.0,7.0,56,0.00,CLR,,0.00,WeatherDisplay:10.37,2013-06-03 11:00:00,
2013-06-03 05:30:00,45.4,30.6,29.60,SE,132,1.0,7.0,56,0.00,CLR,,0.00,WeatherDisplay:10.37,2013-06-03 11:30:00,
2013-06-03 06:00:00,44.4,30.6,29.61,SE,146,2.0,7.0,58,0.00,CLR,,0.00,WeatherDisplay:10.37,2013-06-03 12:00:00,
2013-06-03 06:30:00,45.6,31.7,29.62,SE,134,5.0,8.0,58,0.00,CLR,,0.00,WeatherDisplay:10.37,2013-06-03 12:30:00,
2013-06-03 07:00:00,48.4,33.5,29.62,ESE,116,5.0,9.0,56,0.00,CLR,,0.00,WeatherDisplay:10.37,2013-06-03 13:00:00,
2013-06-03 07:30:00,52.1,36.8,29.62,ESE,111,0.0,7.0,56,0.00,CLR,,0.00,WeatherDisplay:10.37,2013-06-03 13:30:00,
2013-06-03 08:00:00,56.8,39.9,29.62,East,100,0.0,6.0,53,0.00,CLR,,0.00,WeatherDisplay:10.37,2013-06-03 14:00:00,
2013-06-03 08:30:00,60.0,38.6,29.61,East,100,0.0,3.0,45,0.00,CLR,,0.00,WeatherDisplay:10.37,2013-06-03 14:30:00,
2013-06-03 09:00:00,62.5,39.1,29.61,East,99,0.0,3.0,42,0.00,CLR,,0.00,WeatherDisplay:10.37,2013-06-03 15:00:00,
2013-06-03 10:00:00,69.7,43.0,29.60,WSW,252,2.0,5.0,38,0.00,CLR,,0.00,WeatherDisplay:10.37,2013-06-03 16:00:00,
2013-06-03 10:30:00,73.7,44.3,29.60,WSW,256,1.0,5.0,35,0.00,CLR,,0.00,WeatherDisplay:10.37,2013-06-03 16:30:00,
2013-06-03 11:00:00,76.8,41.2,29.60,SW,232,2.0,9.0,28,0.00,CLR,,0.00,WeatherDisplay:10.37,2013-06-03 17:00:00,
2013-06-03 11:30:00,77.0,32.8,29.60,WNW,300,9.0,17.0,20,0.00,CLR,,0.00,WeatherDisplay:10.37,2013-06-03 17:30:00,
2013-06-03 12:00:00,78.1,32.4,29.61,NW,304,5.0,20.0,19,0.00,CLR,,0.00,WeatherDisplay:10.37,2013-06-03 18:00:00,
2013-06-03 12:30:00,79.2,35.9,29.60,West,272,5.0,17.0,21,0.00,CLR,,0.00,WeatherDisplay:10.37,2013-06-03 18:30:00,
2013-06-03 13:00:00,81.6,37.8,29.59,West,273,3.0,15.0,21,0.00,CLR,,0.00,WeatherDisplay:10.37,2013-06-03 19:00:00,
2013-06-03 13:30:00,83.8,42.0,29.57,SW,233,3.0,15.0,23,0.00,CLR,,0.00,WeatherDisplay:10.37,2013-06-03 19:30:00,
2013-06-03 14:00:00,83.9,37.2,29.56,WSW,254,5.0,18.0,19,0.00,CLR,,0.00,WeatherDisplay:10.37,2013-06-03 20:00:00,
2013-06-03 14:30:00,84.9,38.0,29.54,SW,221,6.0,20.0,19,0.00,CLR,,0.00,WeatherDisplay:10.37,2013-06-03 20:30:00,
2013-06-03 15:00:00,84.0,37.3,29.54,West,259,2.0,18.0,19,0.00,CLR,,0.00,WeatherDisplay:10.37,2013-06-03 21:00:00,
2013-06-03 15:30:00,84.6,36.4,29.54,WNW,288,7.0,18.0,18,0.00,CLR,,0.00,WeatherDisplay:10.37,2013-06-03 21:30:00,
2013-06-03 16:00:00,85.7,37.3,29.53,WSW,255,2.0,20.0,18,0.00,CLR,,0.00,WeatherDisplay:10.37,2013-06-03 22:00:00,
2013-06-03 16:30:00,82.7,36.2,29.53,West,265,3.0,18.0,19,0.00,CLR,,0.00,WeatherDisplay:10.37,2013-06-03 22:30:00,
2013-06-03 17:00:00,84.9,35.2,29.53,West,272,6.0,20.0,17,0.00,CLR,,0.00,WeatherDisplay:10.37,2013-06-03 23:00:00,
2013-06-03 17:30:00,79.7,35.1,29.54,WNW,283,5.0,15.0,20,0.00,CLR,,0.00,WeatherDisplay:10.37,2013-06-03 23:30:00,
2013-06-03 18:00:00,77.7,32.1,29.56,NW,317,7.0,24.0,19,0.00,CLR,,0.00,WeatherDisplay:10.37,2013-06-04 00:00:00,
2013-06-03 18:30:00,75.6,35.2,29.58,NW,313,5.0,22.0,23,0.00,CLR,,0.00,WeatherDisplay:10.37,2013-06-04 00:30:00,
2013-06-03 19:00:00,75.6,37.3,29.58,NNW,329,0.0,20.0,25,0.00,CLR,,0.00,WeatherDisplay:10.37,2013-06-04 01:00:00,
2013-06-03 19:30:00,72.8,38.7,29.59,SW,229,1.0,5.0,29,0.00,CLR,,0.00,WeatherDisplay:10.37,2013-06-04 01:30:00,
2013-06-03 20:00:00,72.2,38.2,29.62,NNE,19,0.0,10.0,29,0.00,CLR,,0.00,WeatherDisplay:10.37,2013-06-04 02:00:00,
2013-06-03 20:30:00,70.5,36.7,29.64,NNE,22,3.0,15.0,29,0.00,CLR,,0.00,WeatherDisplay:10.37,2013-06-04 02:30:00,
2013-06-03 21:00:00,71.5,35.7,29.63,South,172,0.0,22.0,27,0.00,CLR,,0.00,WeatherDisplay:10.37,2013-06-04 03:00:00,
2013-06-03 21:30:00,69.5,38.4,29.64,South,170,5.0,12.0,32,0.00,CLR,,0.00,WeatherDisplay:10.37,2013-06-04 03:30:00,
2013-06-03 22:00:00,66.5,38.7,29.65,SSE,149,3.0,15.0,36,0.00,CLR,,0.00,WeatherDisplay:10.37,2013-06-04 04:00:00,
2013-06-03 22:30:00,62.9,40.7,29.66,WNW,286,0.0,5.0,44,0.00,CLR,,0.00,WeatherDisplay:10.37,2013-06-04 04:30:00,
2013-06-03 23:00:00,60.9,40.0,29.67,SSE,161,0.0,7.0,46,0.00,CLR,,0.00,WeatherDisplay:10.37,2013-06-04 05:00:00,
2013-06-03 23:30:00,58.9,40.8,29.68,ESE,122,1.0,7.0,51,0.00,CLR,,0.00,WeatherDisplay:10.37,2013-06-04 05:30:00,